Aeroporto :
LOGIN :

Iscrizione | Disclaimer

   EN    FR    IT 

 










Sommario :    VFR   VFR Marginale   IFR   IFR Intensivo   IFR Molto Intensivo
Visibilità : 
Base nubi : 
>= 8 km
>= 3000ft
5 / 8 km
1000 / 3000 ft
1500m / 5 km
500 / 1000 ft
800 / 1500m
200 / 500 ft
< 800m
< 200 ft
Simboli :   Temporali  Nebbia  Neve Forte  Precipitazioni Forti  Vento > 20 kt
SIGMETs :   Varie  Temporali  Ghiacco  Turbolenza  Onda orograficha  Ceneri Vulcaniche






- Altitudine del aeroporto : 132 ft


EGXE - RAF Leeming

ULTIMO METAR :
  • 151750Z 01013KT 9999 FEW018 BKN050 07/04 Q1009 NOSIG RMK BLU BLU

METARs OBSOLETI :
  • 151650Z 01012KT 9999 FEW018 BKN050 07/04 Q1009 NOSIG RMK BLU BLU
  • 151620Z 01011KT 9999 -SHRA FEW018 BKN050 08/05 Q1010 NOSIG RMK BLU BLU
  • 151550Z 02010KT 9999 FEW018 BKN050 08/05 Q1010 NOSIG RMK BLU BLU

TAF TAF EGXE
Valido dal 15 a 18 ore il 15 a 23 ore UTC


151621Z 1518/1523 02015KT 9999 FEW020 BKN040
PROB30
TEMPO 1518/1520 7000 -SHRA SCT020
BECMG 1520/1523 6000 -RA BKN020
PROB40
TEMPO 1521/1523 SCT014



MetMap, La meteo Aeronautica in un colpo d'occhio ! - Copyright ORBIFLY Dicembre 2007 - Disclaimer

ORBIFLY MET'MAP TEAM :

Programmazione e sviluppo : Alexandra Zaïnal
Concezione e sviluppo : Baudouin d'Aumeries
Co-Programmazione e sviluppo : Marc-Olivier Méhu
Supporto tecnico e logistico : Manuel Goepfert
Aiuto per la traduzione : Arnaldo La Scala

Contatto : metmap@orbifly.com




FONTI E CREDITI :

   NOAA